BRV weather

CLOSED Bremerhaven Airport
Bremerhaven, Bremen, Germany

Public forecast

Using degrees Celsius for public forecast. Weather courtesy of forecast.io.

Closest aviation weather report (METAR) to Bremerhaven Airport

Closest report is Nordholz Naval Airbase, 16.0 nm (29.5 km) N. Retrieved 2020/05/29 07:20 UTC (42 minutes ago):

ETMN 290720Z 07003KT 9999 FEW340 14/07 Q1031 BLU+BLU+

Closest aviation forecast (TAF) to Bremerhaven Airport

Forecast is more than 12 hours old.

Closest forecast is Nordholz Naval Airbase, 16.0 nm (29.5 km) N. Retrieved 2019/09/03 05:53 UTC (9 months ago):

TAF COR ETMN 030445Z 0305/0403 23010G20KT 9999 NSW SCT015 BKN030 TEMPO 0305/0314 26015G25KT 4500 SHRA SCT005 BKN008 BKN015TCU